sensor_id;sensor_type;location;lat;lon;timestamp;P1;durP1;ratioP1;P2;durP2;ratioP2
14903;SDS011;7543;53.148;8.234;2023-01-01T00:02:10;7.63;;;2.80;;
14903;SDS011;7543;53.148;8.234;2023-01-01T00:04:38;6.37;;;3.00;;
14903;SDS011;7543;53.148;8.234;2023-01-01T00:07:09;7.60;;;2.77;;
14903;SDS011;7543;53.148;8.234;2023-01-01T00:09:37;5.80;;;2.90;;
14903;SDS011;7543;53.148;8.234;2023-01-01T00:12:23;8.50;;;2.80;;
14903;SDS011;7543;53.148;8.234;2023-01-01T00:14:52;6.57;;;2.30;;
14903;SDS011;7543;53.148;8.234;2023-01-01T00:17:20;6.73;;;2.50;;
14903;SDS011;7543;53.148;8.234;2023-01-01T00:19:48;5.97;;;3.10;;
14903;SDS011;7543;53.148;8.234;2023-01-01T00:22:18;8.07;;;3.10;;
14903;SDS011;7543;53.148;8.234;2023-01-01T00:24:46;6.73;;;2.77;;
14903;SDS011;7543;53.148;8.234;2023-01-01T00:27:14;7.83;;;2.47;;
14903;SDS011;7543;53.148;8.234;2023-01-01T00:29:42;9.03;;;2.53;;
14903;SDS011;7543;53.148;8.234;2023-01-01T00:32:11;7.10;;;3.07;;
14903;SDS011;7543;53.148;8.234;2023-01-01T00:34:39;10.40;;;3.07;;
14903;SDS011;7543;53.148;8.234;2023-01-01T00:37:07;8.17;;;3.33;;
14903;SDS011;7543;53.148;8.234;2023-01-01T00:39:37;10.30;;;6.27;;
14903;SDS011;7543;53.148;8.234;2023-01-01T00:42:05;8.00;;;3.43;;
14903;SDS011;7543;53.148;8.234;2023-01-01T00:44:33;5.97;;;3.27;;
14903;SDS011;7543;53.148;8.234;2023-01-01T00:47:02;10.47;;;3.53;;
14903;SDS011;7543;53.148;8.234;2023-01-01T00:49:30;6.10;;;3.30;;
14903;SDS011;7543;53.148;8.234;2023-01-01T00:51:58;8.20;;;3.40;;
14903;SDS011;7543;53.148;8.234;2023-01-01T00:54:26;7.97;;;3.60;;
14903;SDS011;7543;53.148;8.234;2023-01-01T00:56:56;6.40;;;3.10;;
14903;SDS011;7543;53.148;8.234;2023-01-01T00:59:24;8.53;;;3.30;;
14903;SDS011;7543;53.148;8.234;2023-01-01T01:01:52;9.00;;;3.37;;
14903;SDS011;7543;53.148;8.234;2023-01-01T01:04:20;9.03;;;3.00;;
14903;SDS011;7543;53.148;8.234;2023-01-01T01:06:48;6.90;;;2.90;;
14903;SDS011;7543;53.148;8.234;2023-01-01T01:09:17;6.97;;;2.97;;
14903;SDS011;7543;53.148;8.234;2023-01-01T01:11:45;11.30;;;4.20;;
14903;SDS011;7543;53.148;8.234;2023-01-01T01:14:14;9.03;;;3.60;;
14903;SDS011;7543;53.148;8.234;2023-01-01T01:16:43;8.50;;;3.63;;
14903;SDS011;7543;53.148;8.234;2023-01-01T01:19:11;5.90;;;3.17;;
14903;SDS011;7543;53.148;8.234;2023-01-01T01:21:44;12.07;;;4.30;;
14903;SDS011;7543;53.148;8.234;2023-01-01T01:24:13;8.60;;;4.47;;
14903;SDS011;7543;53.148;8.234;2023-01-01T01:26:42;9.77;;;4.00;;
14903;SDS011;7543;53.148;8.234;2023-01-01T01:29:10;8.80;;;4.40;;
14903;SDS011;7543;53.148;8.234;2023-01-01T01:31:40;8.30;;;4.30;;
14903;SDS011;7543;53.148;8.234;2023-01-01T01:34:08;9.73;;;4.67;;
14903;SDS011;7543;53.148;8.234;2023-01-01T01:36:36;9.67;;;4.77;;
14903;SDS011;7543;53.148;8.234;2023-01-01T01:39:04;8.73;;;4.50;;
14903;SDS011;7543;53.148;8.234;2023-01-01T01:41:32;8.00;;;4.73;;
14903;SDS011;7543;53.148;8.234;2023-01-01T01:44:01;16.70;;;5.40;;
14903;SDS011;7543;53.148;8.234;2023-01-01T01:46:32;15.70;;;5.40;;
14903;SDS011;7543;53.148;8.234;2023-01-01T01:49:04;10.80;;;5.33;;
14903;SDS011;7543;53.148;8.234;2023-01-01T01:51:33;15.90;;;5.77;;
14903;SDS011;7543;53.148;8.234;2023-01-01T01:54:08;13.10;;;5.27;;
14903;SDS011;7543;53.148;8.234;2023-01-01T01:56:39;13.40;;;6.00;;
14903;SDS011;7543;53.148;8.234;2023-01-01T01:59:10;10.40;;;5.50;;
14903;SDS011;7543;53.148;8.234;2023-01-01T02:01:39;10.47;;;5.00;;
14903;SDS011;7543;53.148;8.234;2023-01-01T02:04:09;11.43;;;5.33;;
14903;SDS011;7543;53.148;8.234;2023-01-01T02:06:38;11.37;;;6.00;;
14903;SDS011;7543;53.148;8.234;2023-01-01T02:09:07;12.37;;;6.43;;
14903;SDS011;7543;53.148;8.234;2023-01-01T02:11:36;12.37;;;5.83;;
14903;SDS011;7543;53.148;8.234;2023-01-01T02:14:04;12.63;;;6.20;;
14903;SDS011;7543;53.148;8.234;2023-01-01T02:16:36;16.30;;;5.47;;
14903;SDS011;7543;53.148;8.234;2023-01-01T02:19:08;20.00;;;5.80;;
14903;SDS011;7543;53.148;8.234;2023-01-01T02:21:47;10.77;;;4.80;;
14903;SDS011;7543;53.148;8.234;2023-01-01T02:27:14;13.30;;;5.73;;
14903;SDS011;7543;53.148;8.234;2023-01-01T02:29:47;9.67;;;5.83;;
14903;SDS011;7543;53.148;8.234;2023-01-01T02:32:18;16.43;;;5.40;;
14903;SDS011;7543;53.148;8.234;2023-01-01T02:34:48;9.93;;;5.47;;
14903;SDS011;7543;53.148;8.234;2023-01-01T02:37:19;11.20;;;5.13;;
14903;SDS011;7543;53.148;8.234;2023-01-01T02:39:49;14.90;;;5.30;;
14903;SDS011;7543;53.148;8.234;2023-01-01T02:42:21;11.77;;;5.10;;
14903;SDS011;7543;53.148;8.234;2023-01-01T02:44:53;10.40;;;5.27;;
14903;SDS011;7543;53.148;8.234;2023-01-01T02:47:23;12.97;;;5.47;;
14903;SDS011;7543;53.148;8.234;2023-01-01T02:49:55;11.90;;;5.07;;
14903;SDS011;7543;53.148;8.234;2023-01-01T02:52:41;11.47;;;4.73;;
14903;SDS011;7543;53.148;8.234;2023-01-01T02:55:20;13.27;;;4.50;;
14903;SDS011;7543;53.148;8.234;2023-01-01T02:57:54;10.50;;;4.30;;
14903;SDS011;7543;53.148;8.234;2023-01-01T03:00:49;13.57;;;4.60;;
14903;SDS011;7543;53.148;8.234;2023-01-01T03:03:17;7.60;;;4.53;;
14903;SDS011;7543;53.148;8.234;2023-01-01T03:05:51;7.70;;;4.13;;
14903;SDS011;7543;53.148;8.234;2023-01-01T03:08:42;9.97;;;4.70;;
14903;SDS011;7543;53.148;8.234;2023-01-01T03:11:14;8.60;;;3.60;;
14903;SDS011;7543;53.148;8.234;2023-01-01T03:13:46;9.03;;;3.90;;
14903;SDS011;7543;53.148;8.234;2023-01-01T03:16:18;11.90;;;4.10;;
14903;SDS011;7543;53.148;8.234;2023-01-01T03:18:54;6.13;;;3.40;;
14903;SDS011;7543;53.148;8.234;2023-01-01T03:21:38;9.83;;;3.90;;
14903;SDS011;7543;53.148;8.234;2023-01-01T03:24:12;10.27;;;3.53;;
14903;SDS011;7543;53.148;8.234;2023-01-01T03:26:44;6.20;;;3.40;;
14903;SDS011;7543;53.148;8.234;2023-01-01T03:29:15;6.17;;;3.20;;
14903;SDS011;7543;53.148;8.234;2023-01-01T03:31:46;9.87;;;3.40;;
14903;SDS011;7543;53.148;8.234;2023-01-01T03:34:16;8.57;;;3.10;;
14903;SDS011;7543;53.148;8.234;2023-01-01T03:36:47;8.83;;;3.93;;
14903;SDS011;7543;53.148;8.234;2023-01-01T03:39:17;12.30;;;2.97;;
14903;SDS011;7543;53.148;8.234;2023-01-01T03:41:48;8.27;;;3.33;;
14903;SDS011;7543;53.148;8.234;2023-01-01T03:44:23;7.07;;;3.17;;
14903;SDS011;7543;53.148;8.234;2023-01-01T03:46:55;9.03;;;3.30;;
14903;SDS011;7543;53.148;8.234;2023-01-01T03:49:23;6.50;;;3.03;;
14903;SDS011;7543;53.148;8.234;2023-01-01T03:52:00;6.93;;;2.93;;
14903;SDS011;7543;53.148;8.234;2023-01-01T03:54:36;6.53;;;2.70;;
14903;SDS011;7543;53.148;8.234;2023-01-01T03:57:12;9.03;;;3.33;;
14903;SDS011;7543;53.148;8.234;2023-01-01T03:59:45;9.60;;;2.53;;
14903;SDS011;7543;53.148;8.234;2023-01-01T04:02:20;6.60;;;2.70;;
14903;SDS011;7543;53.148;8.234;2023-01-01T04:04:53;7.07;;;2.70;;
14903;SDS011;7543;53.148;8.234;2023-01-01T04:07:22;6.37;;;2.93;;
14903;SDS011;7543;53.148;8.234;2023-01-01T04:09:51;5.70;;;2.83;;
14903;SDS011;7543;53.148;8.234;2023-01-01T04:12:20;3.17;;;2.40;;
14903;SDS011;7543;53.148;8.234;2023-01-01T04:14:49;5.37;;;2.60;;
14903;SDS011;7543;53.148;8.234;2023-01-01T04:17:19;5.17;;;2.57;;
14903;SDS011;7543;53.148;8.234;2023-01-01T04:19:48;6.60;;;2.50;;
14903;SDS011;7543;53.148;8.234;2023-01-01T04:22:17;4.60;;;2.13;;
14903;SDS011;7543;53.148;8.234;2023-01-01T04:24:48;4.63;;;2.33;;
14903;SDS011;7543;53.148;8.234;2023-01-01T04:27:17;4.03;;;2.47;;
14903;SDS011;7543;53.148;8.234;2023-01-01T04:29:45;7.43;;;2.00;;
14903;SDS011;7543;53.148;8.234;2023-01-01T04:32:13;6.77;;;2.20;;
14903;SDS011;7543;53.148;8.234;2023-01-01T04:34:42;6.63;;;2.40;;
14903;SDS011;7543;53.148;8.234;2023-01-01T04:37:11;10.93;;;2.20;;
14903;SDS011;7543;53.148;8.234;2023-01-01T04:39:39;5.10;;;2.20;;
14903;SDS011;7543;53.148;8.234;2023-01-01T04:42:07;5.60;;;2.30;;
14903;SDS011;7543;53.148;8.234;2023-01-01T04:44:35;6.37;;;1.80;;
14903;SDS011;7543;53.148;8.234;2023-01-01T04:47:03;4.07;;;1.67;;
14903;SDS011;7543;53.148;8.234;2023-01-01T04:49:32;7.00;;;1.87;;
14903;SDS011;7543;53.148;8.234;2023-01-01T04:52:01;5.63;;;1.87;;
14903;SDS011;7543;53.148;8.234;2023-01-01T04:54:30;6.13;;;1.80;;
14903;SDS011;7543;53.148;8.234;2023-01-01T04:56:58;3.10;;;1.73;;
14903;SDS011;7543;53.148;8.234;2023-01-01T04:59:27;9.87;;;1.80;;
14903;SDS011;7543;53.148;8.234;2023-01-01T05:01:56;4.67;;;2.00;;
14903;SDS011;7543;53.148;8.234;2023-01-01T05:04:25;3.93;;;1.40;;
14903;SDS011;7543;53.148;8.234;2023-01-01T05:06:53;3.60;;;1.70;;
14903;SDS011;7543;53.148;8.234;2023-01-01T05:09:22;8.43;;;1.73;;
14903;SDS011;7543;53.148;8.234;2023-01-01T05:11:52;5.07;;;1.60;;
14903;SDS011;7543;53.148;8.234;2023-01-01T05:14:20;2.80;;;1.33;;
14903;SDS011;7543;53.148;8.234;2023-01-01T05:16:49;5.47;;;1.20;;
14903;SDS011;7543;53.148;8.234;2023-01-01T05:19:17;5.50;;;1.57;;
14903;SDS011;7543;53.148;8.234;2023-01-01T05:21:45;5.53;;;1.43;;
14903;SDS011;7543;53.148;8.234;2023-01-01T05:24:14;3.07;;;1.40;;
14903;SDS011;7543;53.148;8.234;2023-01-01T05:26:44;6.23;;;1.47;;
14903;SDS011;7543;53.148;8.234;2023-01-01T05:29:12;3.63;;;1.30;;
14903;SDS011;7543;53.148;8.234;2023-01-01T05:31:40;5.17;;;1.30;;
14903;SDS011;7543;53.148;8.234;2023-01-01T05:34:09;4.30;;;1.47;;
14903;SDS011;7543;53.148;8.234;2023-01-01T05:36:38;6.47;;;1.23;;
14903;SDS011;7543;53.148;8.234;2023-01-01T05:39:07;2.50;;;1.20;;
14903;SDS011;7543;53.148;8.234;2023-01-01T05:41:37;2.27;;;1.10;;
14903;SDS011;7543;53.148;8.234;2023-01-01T05:44:08;3.30;;;1.20;;
14903;SDS011;7543;53.148;8.234;2023-01-01T05:46:37;4.43;;;1.20;;
14903;SDS011;7543;53.148;8.234;2023-01-01T05:49:07;4.50;;;1.20;;
14903;SDS011;7543;53.148;8.234;2023-01-01T05:51:37;2.83;;;1.37;;
14903;SDS011;7543;53.148;8.234;2023-01-01T05:54:05;5.27;;;1.37;;
14903;SDS011;7543;53.148;8.234;2023-01-01T05:59:11;4.50;;;1.10;;
14903;SDS011;7543;53.148;8.234;2023-01-01T06:01:39;3.27;;;1.27;;
14903;SDS011;7543;53.148;8.234;2023-01-01T06:04:07;3.83;;;1.23;;
14903;SDS011;7543;53.148;8.234;2023-01-01T06:06:36;2.50;;;1.30;;
14903;SDS011;7543;53.148;8.234;2023-01-01T06:09:04;1.93;;;0.90;;
14903;SDS011;7543;53.148;8.234;2023-01-01T06:11:32;3.60;;;1.47;;
14903;SDS011;7543;53.148;8.234;2023-01-01T06:14:01;5.03;;;1.50;;
14903;SDS011;7543;53.148;8.234;2023-01-01T06:16:30;4.53;;;1.23;;
14903;SDS011;7543;53.148;8.234;2023-01-01T06:18:59;3.83;;;1.20;;
14903;SDS011;7543;53.148;8.234;2023-01-01T06:21:27;6.20;;;1.17;;
14903;SDS011;7543;53.148;8.234;2023-01-01T06:23:57;3.83;;;1.10;;
14903;SDS011;7543;53.148;8.234;2023-01-01T06:26:26;3.47;;;1.20;;
14903;SDS011;7543;53.148;8.234;2023-01-01T06:28:56;1.47;;;1.00;;
14903;SDS011;7543;53.148;8.234;2023-01-01T06:31:25;4.80;;;1.30;;
14903;SDS011;7543;53.148;8.234;2023-01-01T06:33:56;3.57;;;1.30;;
14903;SDS011;7543;53.148;8.234;2023-01-01T06:36:24;4.33;;;0.97;;
14903;SDS011;7543;53.148;8.234;2023-01-01T06:38:55;1.97;;;0.80;;
14903;SDS011;7543;53.148;8.234;2023-01-01T06:41:24;1.97;;;1.00;;
14903;SDS011;7543;53.148;8.234;2023-01-01T06:43:54;3.77;;;1.00;;
14903;SDS011;7543;53.148;8.234;2023-01-01T06:46:23;3.93;;;1.30;;
14903;SDS011;7543;53.148;8.234;2023-01-01T06:48:53;4.80;;;1.13;;
14903;SDS011;7543;53.148;8.234;2023-01-01T06:51:24;3.10;;;1.00;;
14903;SDS011;7543;53.148;8.234;2023-01-01T06:53:53;1.40;;;0.90;;
14903;SDS011;7543;53.148;8.234;2023-01-01T06:56:21;1.40;;;0.80;;
14903;SDS011;7543;53.148;8.234;2023-01-01T06:58:50;2.70;;;1.27;;
14903;SDS011;7543;53.148;8.234;2023-01-01T07:01:19;2.13;;;0.77;;
14903;SDS011;7543;53.148;8.234;2023-01-01T07:03:49;4.20;;;1.10;;
14903;SDS011;7543;53.148;8.234;2023-01-01T07:06:17;2.83;;;0.70;;
14903;SDS011;7543;53.148;8.234;2023-01-01T07:08:47;2.20;;;0.90;;
14903;SDS011;7543;53.148;8.234;2023-01-01T07:11:16;1.83;;;0.80;;
14903;SDS011;7543;53.148;8.234;2023-01-01T07:13:44;2.40;;;0.80;;
14903;SDS011;7543;53.148;8.234;2023-01-01T07:16:13;0.97;;;0.73;;
14903;SDS011;7543;53.148;8.234;2023-01-01T07:18:41;2.80;;;0.80;;
14903;SDS011;7543;53.148;8.234;2023-01-01T07:21:20;0.80;;;0.50;;
14903;SDS011;7543;53.148;8.234;2023-01-01T07:23:53;2.40;;;0.93;;
14903;SDS011;7543;53.148;8.234;2023-01-01T07:26:23;2.63;;;0.87;;
14903;SDS011;7543;53.148;8.234;2023-01-01T07:28:53;1.23;;;0.80;;
14903;SDS011;7543;53.148;8.234;2023-01-01T07:31:21;1.97;;;0.90;;
14903;SDS011;7543;53.148;8.234;2023-01-01T07:33:49;5.03;;;1.00;;
14903;SDS011;7543;53.148;8.234;2023-01-01T07:36:18;2.73;;;0.90;;
14903;SDS011;7543;53.148;8.234;2023-01-01T07:38:46;3.33;;;1.00;;
14903;SDS011;7543;53.148;8.234;2023-01-01T07:41:15;2.63;;;1.00;;
14903;SDS011;7543;53.148;8.234;2023-01-01T07:43:44;3.13;;;0.83;;
14903;SDS011;7543;53.148;8.234;2023-01-01T07:46:12;2.47;;;1.03;;
14903;SDS011;7543;53.148;8.234;2023-01-01T07:48:42;2.17;;;0.80;;
14903;SDS011;7543;53.148;8.234;2023-01-01T07:51:11;4.50;;;1.17;;
14903;SDS011;7543;53.148;8.234;2023-01-01T07:53:39;3.17;;;0.87;;
14903;SDS011;7543;53.148;8.234;2023-01-01T07:56:07;3.50;;;0.63;;
14903;SDS011;7543;53.148;8.234;2023-01-01T07:58:38;1.10;;;0.70;;
14903;SDS011;7543;53.148;8.234;2023-01-01T08:01:08;2.93;;;0.70;;
14903;SDS011;7543;53.148;8.234;2023-01-01T08:03:37;1.63;;;0.87;;
14903;SDS011;7543;53.148;8.234;2023-01-01T08:06:06;0.70;;;0.67;;
14903;SDS011;7543;53.148;8.234;2023-01-01T08:08:35;2.73;;;0.60;;
14903;SDS011;7543;53.148;8.234;2023-01-01T08:11:04;3.97;;;0.80;;
14903;SDS011;7543;53.148;8.234;2023-01-01T08:13:32;1.10;;;0.63;;
14903;SDS011;7543;53.148;8.234;2023-01-01T08:16:02;1.30;;;0.53;;
14903;SDS011;7543;53.148;8.234;2023-01-01T08:18:31;2.60;;;0.90;;
14903;SDS011;7543;53.148;8.234;2023-01-01T08:21:00;1.27;;;0.83;;
14903;SDS011;7543;53.148;8.234;2023-01-01T08:23:28;6.67;;;1.00;;
14903;SDS011;7543;53.148;8.234;2023-01-01T08:25:57;3.43;;;0.83;;
14903;SDS011;7543;53.148;8.234;2023-01-01T08:28:27;2.30;;;0.50;;
14903;SDS011;7543;53.148;8.234;2023-01-01T08:30:56;1.57;;;0.90;;
14903;SDS011;7543;53.148;8.234;2023-01-01T08:33:26;1.37;;;0.83;;
14903;SDS011;7543;53.148;8.234;2023-01-01T08:35:54;1.00;;;0.60;;
14903;SDS011;7543;53.148;8.234;2023-01-01T08:38:22;2.03;;;0.50;;
14903;SDS011;7543;53.148;8.234;2023-01-01T08:40:50;0.90;;;0.60;;
14903;SDS011;7543;53.148;8.234;2023-01-01T08:43:19;5.60;;;0.80;;
14903;SDS011;7543;53.148;8.234;2023-01-01T08:45:47;2.13;;;0.90;;
14903;SDS011;7543;53.148;8.234;2023-01-01T08:48:15;2.40;;;0.90;;
14903;SDS011;7543;53.148;8.234;2023-01-01T08:50:45;0.93;;;0.60;;
14903;SDS011;7543;53.148;8.234;2023-01-01T08:53:19;1.60;;;0.70;;
14903;SDS011;7543;53.148;8.234;2023-01-01T08:55:54;4.53;;;0.80;;
14903;SDS011;7543;53.148;8.234;2023-01-01T08:58:22;5.27;;;0.70;;
14903;SDS011;7543;53.148;8.234;2023-01-01T09:00:51;1.23;;;0.70;;
14903;SDS011;7543;53.148;8.234;2023-01-01T09:03:21;3.43;;;0.80;;
14903;SDS011;7543;53.148;8.234;2023-01-01T09:05:50;4.20;;;0.80;;
14903;SDS011;7543;53.148;8.234;2023-01-01T09:08:19;1.53;;;0.60;;
14903;SDS011;7543;53.148;8.234;2023-01-01T09:10:48;4.13;;;0.73;;
14903;SDS011;7543;53.148;8.234;2023-01-01T09:13:17;1.97;;;0.67;;
14903;SDS011;7543;53.148;8.234;2023-01-01T09:15:48;4.53;;;1.00;;
14903;SDS011;7543;53.148;8.234;2023-01-01T09:18:16;0.80;;;0.40;;
14903;SDS011;7543;53.148;8.234;2023-01-01T09:20:45;3.37;;;0.50;;
14903;SDS011;7543;53.148;8.234;2023-01-01T09:23:14;2.20;;;0.50;;
14903;SDS011;7543;53.148;8.234;2023-01-01T09:25:42;2.43;;;0.70;;
14903;SDS011;7543;53.148;8.234;2023-01-01T09:28:11;3.53;;;0.80;;
14903;SDS011;7543;53.148;8.234;2023-01-01T09:30:41;4.33;;;0.63;;
14903;SDS011;7543;53.148;8.234;2023-01-01T09:33:09;3.30;;;0.63;;
14903;SDS011;7543;53.148;8.234;2023-01-01T09:35:37;3.57;;;0.63;;
14903;SDS011;7543;53.148;8.234;2023-01-01T09:38:09;1.83;;;0.60;;
14903;SDS011;7543;53.148;8.234;2023-01-01T09:40:43;1.40;;;0.43;;
14903;SDS011;7543;53.148;8.234;2023-01-01T09:43:17;1.63;;;0.63;;
14903;SDS011;7543;53.148;8.234;2023-01-01T09:45:54;1.80;;;0.50;;
14903;SDS011;7543;53.148;8.234;2023-01-01T09:48:24;1.87;;;0.63;;
14903;SDS011;7543;53.148;8.234;2023-01-01T09:50:52;3.33;;;0.70;;
14903;SDS011;7543;53.148;8.234;2023-01-01T09:53:21;2.30;;;0.50;;
14903;SDS011;7543;53.148;8.234;2023-01-01T09:55:55;3.20;;;0.67;;
14903;SDS011;7543;53.148;8.234;2023-01-01T09:58:25;3.77;;;0.80;;
14903;SDS011;7543;53.148;8.234;2023-01-01T10:00:55;1.50;;;0.47;;
14903;SDS011;7543;53.148;8.234;2023-01-01T10:03:31;2.77;;;0.67;;
14903;SDS011;7543;53.148;8.234;2023-01-01T10:06:07;2.57;;;0.73;;
14903;SDS011;7543;53.148;8.234;2023-01-01T10:08:46;2.03;;;0.83;;
14903;SDS011;7543;53.148;8.234;2023-01-01T10:11:22;5.17;;;0.83;;
14903;SDS011;7543;53.148;8.234;2023-01-01T10:13:52;1.77;;;0.67;;
14903;SDS011;7543;53.148;8.234;2023-01-01T10:16:26;1.50;;;0.50;;
14903;SDS011;7543;53.148;8.234;2023-01-01T10:18:57;1.63;;;0.60;;
14903;SDS011;7543;53.148;8.234;2023-01-01T10:21:29;5.43;;;1.27;;
14903;SDS011;7543;53.148;8.234;2023-01-01T10:24:00;2.37;;;0.60;;
14903;SDS011;7543;53.148;8.234;2023-01-01T10:26:32;2.70;;;0.80;;
14903;SDS011;7543;53.148;8.234;2023-01-01T10:29:02;3.07;;;0.60;;
14903;SDS011;7543;53.148;8.234;2023-01-01T10:31:34;1.70;;;0.57;;
14903;SDS011;7543;53.148;8.234;2023-01-01T10:34:07;1.60;;;0.67;;
14903;SDS011;7543;53.148;8.234;2023-01-01T10:36:39;1.50;;;0.70;;
14903;SDS011;7543;53.148;8.234;2023-01-01T10:39:09;2.10;;;0.40;;
14903;SDS011;7543;53.148;8.234;2023-01-01T10:41:39;2.23;;;0.70;;
14903;SDS011;7543;53.148;8.234;2023-01-01T10:44:08;3.30;;;0.67;;
14903;SDS011;7543;53.148;8.234;2023-01-01T10:46:37;1.30;;;0.30;;
14903;SDS011;7543;53.148;8.234;2023-01-01T10:49:12;2.87;;;0.70;;
14903;SDS011;7543;53.148;8.234;2023-01-01T10:51:42;3.23;;;0.60;;
14903;SDS011;7543;53.148;8.234;2023-01-01T10:54:22;4.40;;;0.77;;
14903;SDS011;7543;53.148;8.234;2023-01-01T10:56:55;1.90;;;0.40;;
14903;SDS011;7543;53.148;8.234;2023-01-01T10:59:36;4.30;;;1.20;;
14903;SDS011;7543;53.148;8.234;2023-01-01T11:02:16;4.30;;;0.70;;
14903;SDS011;7543;53.148;8.234;2023-01-01T11:04:46;2.50;;;0.50;;
14903;SDS011;7543;53.148;8.234;2023-01-01T11:07:24;1.90;;;0.70;;
14903;SDS011;7543;53.148;8.234;2023-01-01T11:09:56;2.30;;;0.70;;
14903;SDS011;7543;53.148;8.234;2023-01-01T11:12:29;1.00;;;0.47;;
14903;SDS011;7543;53.148;8.234;2023-01-01T11:15:01;1.70;;;0.70;;
14903;SDS011;7543;53.148;8.234;2023-01-01T11:17:30;1.57;;;0.63;;
14903;SDS011;7543;53.148;8.234;2023-01-01T11:20:00;2.30;;;0.90;;
14903;SDS011;7543;53.148;8.234;2023-01-01T11:22:35;3.93;;;0.87;;
14903;SDS011;7543;53.148;8.234;2023-01-01T11:25:15;3.10;;;0.90;;
14903;SDS011;7543;53.148;8.234;2023-01-01T11:27:46;1.83;;;0.60;;
14903;SDS011;7543;53.148;8.234;2023-01-01T11:30:19;3.53;;;1.03;;
14903;SDS011;7543;53.148;8.234;2023-01-01T11:32:50;3.50;;;0.87;;
14903;SDS011;7543;53.148;8.234;2023-01-01T11:35:22;6.17;;;0.80;;
14903;SDS011;7543;53.148;8.234;2023-01-01T11:37:51;2.93;;;0.60;;
14903;SDS011;7543;53.148;8.234;2023-01-01T11:40:21;4.90;;;1.40;;
14903;SDS011;7543;53.148;8.234;2023-01-01T11:42:52;2.37;;;0.80;;
14903;SDS011;7543;53.148;8.234;2023-01-01T11:45:22;2.73;;;0.83;;
14903;SDS011;7543;53.148;8.234;2023-01-01T11:47:53;1.93;;;0.70;;
14903;SDS011;7543;53.148;8.234;2023-01-01T11:50:27;3.10;;;0.67;;
14903;SDS011;7543;53.148;8.234;2023-01-01T11:52:57;3.77;;;0.90;;
14903;SDS011;7543;53.148;8.234;2023-01-01T11:55:35;2.43;;;0.53;;
14903;SDS011;7543;53.148;8.234;2023-01-01T11:58:10;1.93;;;0.67;;
14903;SDS011;7543;53.148;8.234;2023-01-01T12:00:41;2.27;;;0.80;;
14903;SDS011;7543;53.148;8.234;2023-01-01T12:03:15;3.13;;;0.77;;
14903;SDS011;7543;53.148;8.234;2023-01-01T12:05:47;3.97;;;0.70;;
14903;SDS011;7543;53.148;8.234;2023-01-01T12:08:22;5.23;;;0.90;;
14903;SDS011;7543;53.148;8.234;2023-01-01T12:10:57;3.13;;;0.97;;
14903;SDS011;7543;53.148;8.234;2023-01-01T12:13:32;3.37;;;0.97;;
14903;SDS011;7543;53.148;8.234;2023-01-01T12:16:06;1.50;;;0.80;;
14903;SDS011;7543;53.148;8.234;2023-01-01T12:18:38;1.63;;;0.63;;
14903;SDS011;7543;53.148;8.234;2023-01-01T12:21:10;3.23;;;1.10;;
14903;SDS011;7543;53.148;8.234;2023-01-01T12:23:44;1.43;;;0.47;;
14903;SDS011;7543;53.148;8.234;2023-01-01T12:26:15;4.00;;;0.87;;
14903;SDS011;7543;53.148;8.234;2023-01-01T12:29:07;1.07;;;0.57;;
14903;SDS011;7543;53.148;8.234;2023-01-01T12:31:42;2.53;;;0.60;;
14903;SDS011;7543;53.148;8.234;2023-01-01T12:34:18;4.50;;;1.27;;
14903;SDS011;7543;53.148;8.234;2023-01-01T12:36:52;3.20;;;0.87;;
14903;SDS011;7543;53.148;8.234;2023-01-01T12:39:39;3.80;;;0.90;;
14903;SDS011;7543;53.148;8.234;2023-01-01T12:42:18;2.17;;;0.80;;
14903;SDS011;7543;53.148;8.234;2023-01-01T12:44:56;5.83;;;1.17;;
14903;SDS011;7543;53.148;8.234;2023-01-01T12:47:35;5.40;;;1.00;;
14903;SDS011;7543;53.148;8.234;2023-01-01T12:50:11;2.60;;;0.90;;
14903;SDS011;7543;53.148;8.234;2023-01-01T12:52:49;3.67;;;0.67;;
14903;SDS011;7543;53.148;8.234;2023-01-01T12:55:44;1.93;;;0.80;;
14903;SDS011;7543;53.148;8.234;2023-01-01T12:58:20;1.80;;;0.63;;
14903;SDS011;7543;53.148;8.234;2023-01-01T13:00:55;2.87;;;0.80;;
14903;SDS011;7543;53.148;8.234;2023-01-01T13:03:27;4.50;;;1.13;;
14903;SDS011;7543;53.148;8.234;2023-01-01T13:05:58;4.07;;;1.00;;
14903;SDS011;7543;53.148;8.234;2023-01-01T13:08:27;3.00;;;0.80;;
14903;SDS011;7543;53.148;8.234;2023-01-01T13:10:55;2.30;;;0.77;;
14903;SDS011;7543;53.148;8.234;2023-01-01T13:13:24;5.97;;;0.97;;
14903;SDS011;7543;53.148;8.234;2023-01-01T13:15:54;2.43;;;0.87;;
14903;SDS011;7543;53.148;8.234;2023-01-01T13:18:24;3.37;;;1.03;;
14903;SDS011;7543;53.148;8.234;2023-01-01T13:21:04;4.63;;;0.83;;
14903;SDS011;7543;53.148;8.234;2023-01-01T13:23:45;2.70;;;0.77;;
14903;SDS011;7543;53.148;8.234;2023-01-01T13:32:06;3.20;;;1.27;;
14903;SDS011;7543;53.148;8.234;2023-01-01T13:34:37;3.13;;;1.00;;
14903;SDS011;7543;53.148;8.234;2023-01-01T13:37:27;5.17;;;0.63;;
14903;SDS011;7543;53.148;8.234;2023-01-01T13:39:59;1.20;;;0.70;;
14903;SDS011;7543;53.148;8.234;2023-01-01T13:42:41;3.80;;;0.90;;
14903;SDS011;7543;53.148;8.234;2023-01-01T13:45:19;8.13;;;1.53;;
14903;SDS011;7543;53.148;8.234;2023-01-01T13:47:57;6.67;;;1.00;;
14903;SDS011;7543;53.148;8.234;2023-01-01T13:50:32;3.60;;;0.87;;
14903;SDS011;7543;53.148;8.234;2023-01-01T13:56:12;3.30;;;0.90;;
14903;SDS011;7543;53.148;8.234;2023-01-01T13:59:05;4.07;;;0.60;;
14903;SDS011;7543;53.148;8.234;2023-01-01T14:02:00;5.00;;;1.03;;
14903;SDS011;7543;53.148;8.234;2023-01-01T14:04:40;10.43;;;1.20;;
14903;SDS011;7543;53.148;8.234;2023-01-01T14:07:14;5.77;;;1.73;;
14903;SDS011;7543;53.148;8.234;2023-01-01T14:09:46;4.80;;;0.83;;
14903;SDS011;7543;53.148;8.234;2023-01-01T14:12:16;2.07;;;1.20;;
14903;SDS011;7543;53.148;8.234;2023-01-01T14:14:45;4.23;;;0.73;;
14903;SDS011;7543;53.148;8.234;2023-01-01T14:17:14;4.67;;;0.80;;
14903;SDS011;7543;53.148;8.234;2023-01-01T14:19:44;7.10;;;1.10;;
14903;SDS011;7543;53.148;8.234;2023-01-01T14:22:13;4.13;;;0.87;;
14903;SDS011;7543;53.148;8.234;2023-01-01T14:24:44;3.57;;;1.20;;
14903;SDS011;7543;53.148;8.234;2023-01-01T14:27:17;3.20;;;0.80;;
14903;SDS011;7543;53.148;8.234;2023-01-01T14:29:47;5.03;;;1.00;;
14903;SDS011;7543;53.148;8.234;2023-01-01T14:32:20;8.93;;;1.20;;
14903;SDS011;7543;53.148;8.234;2023-01-01T14:34:58;5.80;;;1.07;;
14903;SDS011;7543;53.148;8.234;2023-01-01T14:37:27;2.93;;;1.03;;
14903;SDS011;7543;53.148;8.234;2023-01-01T14:40:06;4.23;;;1.00;;
14903;SDS011;7543;53.148;8.234;2023-01-01T14:42:36;4.40;;;1.20;;
14903;SDS011;7543;53.148;8.234;2023-01-01T14:45:04;7.97;;;1.30;;
14903;SDS011;7543;53.148;8.234;2023-01-01T14:47:33;4.57;;;1.03;;
14903;SDS011;7543;53.148;8.234;2023-01-01T14:50:04;5.57;;;1.07;;
14903;SDS011;7543;53.148;8.234;2023-01-01T14:52:40;2.60;;;0.80;;
14903;SDS011;7543;53.148;8.234;2023-01-01T14:55:11;4.03;;;1.10;;
14903;SDS011;7543;53.148;8.234;2023-01-01T14:57:44;3.63;;;0.97;;
14903;SDS011;7543;53.148;8.234;2023-01-01T15:00:19;5.67;;;1.47;;
14903;SDS011;7543;53.148;8.234;2023-01-01T15:02:49;2.80;;;0.80;;
14903;SDS011;7543;53.148;8.234;2023-01-01T15:05:25;8.70;;;1.30;;
14903;SDS011;7543;53.148;8.234;2023-01-01T15:07:55;3.13;;;0.97;;
14903;SDS011;7543;53.148;8.234;2023-01-01T15:10:25;2.57;;;0.70;;
14903;SDS011;7543;53.148;8.234;2023-01-01T15:12:54;3.93;;;0.90;;
14903;SDS011;7543;53.148;8.234;2023-01-01T15:15:32;6.27;;;1.37;;
14903;SDS011;7543;53.148;8.234;2023-01-01T15:18:05;3.70;;;1.23;;
14903;SDS011;7543;53.148;8.234;2023-01-01T15:20:35;4.47;;;0.93;;
14903;SDS011;7543;53.148;8.234;2023-01-01T15:23:03;3.87;;;1.37;;
14903;SDS011;7543;53.148;8.234;2023-01-01T15:25:31;4.60;;;1.00;;
14903;SDS011;7543;53.148;8.234;2023-01-01T15:28:02;7.60;;;1.37;;
14903;SDS011;7543;53.148;8.234;2023-01-01T15:30:31;6.67;;;1.20;;
14903;SDS011;7543;53.148;8.234;2023-01-01T15:33:04;3.73;;;1.47;;
14903;SDS011;7543;53.148;8.234;2023-01-01T15:35:34;4.60;;;1.10;;
14903;SDS011;7543;53.148;8.234;2023-01-01T15:38:08;4.83;;;1.50;;
14903;SDS011;7543;53.148;8.234;2023-01-01T15:40:37;4.23;;;1.30;;